Time;durP1;ratioP1;P1;durP2;ratioP2;P2;SDS_P1;SDS_P2;PMS_P1;PMS_P2;Temp;Humidity;BMP_temperature;BMP_pressure;BME280_temperature;BME280_humidity;BME280_pressure;Samples;Min_cycle;Max_cycle;Signal;HPM_P1;HPM_P2
2023/02/23 00:00:33;;;;;;;17.67;8.20;;;6.70;99.90;;;;;;5080019;28;20603;-66
2023/02/23 00:03:01;;;;;;;24.50;10.13;;;6.70;99.90;;;;;;5080855;28;20795;-64
2023/02/23 00:05:35;;;;;;;15.60;8.17;;;6.70;99.90;;;;;;5067791;28;20448;-66
2023/02/23 00:08:02;;;;;;;48.57;19.20;;;6.70;99.90;;;;;;5078151;28;21020;-65
2023/02/23 00:10:30;;;;;;;19.63;8.37;;;6.60;99.90;;;;;;5080481;28;20490;-66
2023/02/23 00:12:58;;;;;;;25.03;8.80;;;6.60;99.90;;;;;;5080270;28;20438;-66
2023/02/23 00:15:28;;;;;;;17.00;7.60;;;6.60;99.90;;;;;;5079285;28;20736;-66
2023/02/23 00:17:56;;;;;;;27.83;7.97;;;6.60;99.90;;;;;;5079245;28;20472;-66
2023/02/23 00:20:26;;;;;;;13.90;7.97;;;6.60;99.90;;;;;;5060285;28;20448;-66
2023/02/23 00:22:57;;;;;;;19.57;7.83;;;6.60;99.90;;;;;;5059973;28;20539;-65
2023/02/23 00:25:26;;;;;;;25.87;7.40;;;6.60;99.90;;;;;;5059699;28;20467;-65
2023/02/23 00:27:58;;;;;;;14.07;7.00;;;6.60;99.90;;;;;;5041181;28;21001;-66
2023/02/23 00:30:25;;;;;;;23.37;6.93;;;6.70;99.90;;;;;;5059255;28;20471;-65
2023/02/23 00:32:52;;;;;;;14.40;7.13;;;6.70;99.90;;;;;;5059210;28;20440;-65
2023/02/23 00:35:19;;;;;;;20.07;8.50;;;6.60;99.90;;;;;;5059581;28;20443;-65
2023/02/23 00:37:50;;;;;;;19.43;7.13;;;6.70;99.90;;;;;;5059793;28;20487;-65
2023/02/23 00:40:20;;;;;;;14.03;8.30;;;6.70;99.90;;;;;;5062966;28;20446;-65
2023/02/23 00:42:48;;;;;;;14.83;8.10;;;6.70;99.90;;;;;;5079577;28;20917;-65
2023/02/23 00:45:16;;;;;;;23.57;9.07;;;6.60;99.90;;;;;;5079844;28;20499;-65
2023/02/23 00:47:47;;;;;;;15.90;8.57;;;6.60;99.90;;;;;;5064425;28;20893;-66
2023/02/23 00:50:16;;;;;;;16.97;7.50;;;6.60;99.90;;;;;;5059411;28;20466;-65
2023/02/23 00:52:44;;;;;;;18.93;8.47;;;6.60;99.90;;;;;;5059660;28;20458;-66
2023/02/23 00:55:13;;;;;;;21.47;8.70;;;6.60;99.90;;;;;;5070890;28;20438;-66
2023/02/23 00:57:41;;;;;;;18.50;7.90;;;6.50;99.90;;;;;;5080134;28;20814;-66
2023/02/23 01:00:19;;;;;;;20.93;7.60;;;6.50;99.90;;;;;;5063078;28;20499;-65
2023/02/23 01:02:46;;;;;;;17.30;8.50;;;6.60;99.90;;;;;;5080113;28;20427;-65
2023/02/23 01:05:15;;;;;;;19.33;8.80;;;6.50;99.90;;;;;;5080413;28;20438;-67
2023/02/23 01:07:45;;;;;;;16.53;8.13;;;6.50;99.90;;;;;;5048515;28;20467;-65
2023/02/23 01:10:19;;;;;;;17.50;7.17;;;7.80;99.90;;;;;;5060188;28;20499;-65
2023/02/23 01:12:49;;;;;;;18.00;7.90;;;6.50;99.90;;;;;;5067948;28;20465;-66
2023/02/23 01:15:18;;;;;;;15.77;7.70;;;6.50;99.90;;;;;;5067350;28;20518;-65
2023/02/23 01:17:46;;;;;;;14.40;8.10;;;6.50;99.90;;;;;;5075320;28;20516;-66
2023/02/23 01:20:18;;;;;;;24.70;8.50;;;6.50;99.90;;;;;;5078505;28;20908;-65
2023/02/23 01:22:47;;;;;;;16.23;7.87;;;6.50;99.90;;;;;;5079064;28;20441;-65
2023/02/23 01:25:16;;;;;;;17.03;8.40;;;6.50;99.90;;;;;;5079361;28;20478;-65
2023/02/23 01:27:43;;;;;;;20.10;7.63;;;6.50;99.90;;;;;;5064516;28;20498;-66
2023/02/23 01:30:14;;;;;;;16.53;9.10;;;6.50;99.90;;;;;;5058166;28;20451;-64
2023/02/23 01:32:42;;;;;;;21.87;8.07;;;6.50;99.90;;;;;;5058183;28;20509;-65
2023/02/23 01:35:12;;;;;;;17.50;9.17;;;6.40;99.90;;;;;;5057483;28;20452;-66
2023/02/23 01:37:42;;;;;;;14.80;8.50;;;6.40;99.90;;;;;;5056921;28;20502;-65
2023/02/23 01:40:27;;;;;;;30.63;9.20;;;6.40;99.90;;;;;;5057341;28;20447;-65
2023/02/23 01:42:57;;;;;;;23.03;9.23;;;6.40;99.90;;;;;;5057202;28;20447;-66
2023/02/23 01:45:33;;;;;;;24.27;9.17;;;6.40;99.90;;;;;;5058111;28;20447;-65
2023/02/23 01:48:04;;;;;;;22.00;9.30;;;6.40;99.90;;;;;;5059773;28;20493;-65
2023/02/23 01:50:38;;;;;;;26.20;9.70;;;6.40;99.90;;;;;;5060993;28;20462;-66
2023/02/23 01:53:07;;;;;;;18.90;9.10;;;6.40;99.90;;;;;;5061345;28;20452;-65
2023/02/23 01:55:35;;;;;;;16.40;8.67;;;6.40;99.90;;;;;;5043604;28;20448;-65
2023/02/23 01:58:11;;;;;;;18.13;10.00;;;6.40;99.90;;;;;;5060546;28;20529;-66
2023/02/23 02:00:40;;;;;;;20.07;7.33;;;6.40;99.90;;;;;;5060148;28;20542;-66
2023/02/23 02:03:12;;;;;;;18.90;8.47;;;6.40;99.90;;;;;;5059937;28;20443;-66
2023/02/23 02:05:40;;;;;;;19.50;8.70;;;6.40;99.90;;;;;;5060332;28;20508;-66
2023/02/23 02:08:11;;;;;;;18.80;8.63;;;6.40;99.90;;;;;;5061232;28;20533;-65
2023/02/23 02:10:44;;;;;;;14.07;8.87;;;6.40;99.90;;;;;;5060331;28;20451;-66
2023/02/23 02:13:18;;;;;;;15.37;8.73;;;6.40;99.90;;;;;;5060632;28;20454;-64
2023/02/23 02:16:18;;;;;;;20.47;8.20;;;6.40;99.90;;;;;;5060100;28;20431;-66
2023/02/23 02:19:22;;;;;;;20.40;9.53;;;6.40;99.90;;;;;;5059331;28;20463;-65
2023/02/23 02:22:25;;;;;;;19.23;8.80;;;6.40;99.90;;;;;;5057725;28;20486;-66
2023/02/23 02:25:27;;;;;;;19.60;8.23;;;6.30;99.90;;;;;;5058499;28;20481;-64
2023/02/23 02:28:21;;;;;;;25.40;8.77;;;6.30;99.90;;;;;;5058319;28;20520;-65
2023/02/23 02:31:15;;;;;;;23.87;9.20;;;6.30;99.90;;;;;;5058192;28;20499;-65
2023/02/23 02:34:10;;;;;;;17.10;7.70;;;6.40;99.90;;;;;;5044262;28;20447;-64
2023/02/23 02:37:03;;;;;;;11.40;7.60;;;6.30;99.90;;;;;;5057500;28;20448;-65
2023/02/23 02:39:38;;;;;;;16.87;7.57;;;6.30;99.90;;;;;;5057559;28;20467;-65
2023/02/23 02:42:17;;;;;;;20.70;8.90;;;6.30;99.90;;;;;;5058084;28;20500;-65
2023/02/23 02:44:53;;;;;;;18.00;9.50;;;6.30;99.90;;;;;;5041941;28;20518;-66
2023/02/23 02:47:25;;;;;;;18.27;7.60;;;6.20;99.90;;;;;;5058295;28;20528;-65
2023/02/23 02:50:01;;;;;;;24.37;10.53;;;6.20;99.90;;;;;;5058565;28;21067;-66
2023/02/23 02:52:35;;;;;;;17.40;9.03;;;6.20;99.90;;;;;;5058078;28;20447;-65
2023/02/23 02:55:11;;;;;;;17.30;9.30;;;6.20;99.90;;;;;;5058692;28;20420;-66
2023/02/23 02:57:39;;;;;;;17.87;9.80;;;6.20;99.90;;;;;;5058301;28;20467;-66
2023/02/23 04:19:18;;;;;;;24.17;9.73;;;5.80;99.90;;;;;;5068186;28;20430;-65
2023/02/23 04:21:46;;;;;;;14.80;9.20;;;5.70;99.90;;;;;;5068396;28;20420;-65
2023/02/23 04:24:14;;;;;;;19.47;9.13;;;5.70;99.90;;;;;;5068494;28;20448;-65
2023/02/23 04:26:43;;;;;;;17.80;11.37;;;5.70;99.90;;;;;;5067539;28;20800;-65
2023/02/23 04:29:11;;;;;;;22.20;10.27;;;5.60;99.90;;;;;;5068900;28;20479;-66
2023/02/23 04:31:41;;;;;;;22.33;8.80;;;5.60;99.90;;;;;;5068626;28;20471;-66
2023/02/23 04:34:13;;;;;;;15.60;8.13;;;5.60;99.90;;;;;;5069687;28;20450;-65
2023/02/23 04:36:41;;;;;;;21.83;8.10;;;5.60;99.90;;;;;;5068112;28;20444;-65
2023/02/23 04:39:08;;;;;;;24.80;10.40;;;5.60;99.90;;;;;;5070431;28;20474;-66
2023/02/23 04:41:35;;;;;;;20.17;10.27;;;5.50;99.90;;;;;;5069986;28;20447;-65
2023/02/23 04:44:02;;;;;;;18.47;8.33;;;5.50;99.90;;;;;;5071039;28;20434;-65
2023/02/23 04:46:33;;;;;;;22.23;10.17;;;5.50;99.90;;;;;;5071121;28;20469;-65
2023/02/23 04:49:09;;;;;;;27.47;9.63;;;5.60;99.90;;;;;;5072348;28;20529;-65
2023/02/23 04:51:36;;;;;;;29.87;10.60;;;5.60;99.90;;;;;;5072514;28;20420;-65
2023/02/23 04:54:03;;;;;;;17.97;11.30;;;5.50;99.90;;;;;;5072590;28;20834;-64
2023/02/23 04:56:38;;;;;;;17.07;10.20;;;5.50;99.90;;;;;;5072306;28;20427;-65
2023/02/23 04:59:05;;;;;;;21.57;9.33;;;5.40;99.90;;;;;;5072423;28;20463;-65
2023/02/23 05:01:32;;;;;;;19.97;9.67;;;5.40;99.90;;;;;;5054461;28;20474;-66
2023/02/23 05:03:59;;;;;;;22.47;10.80;;;5.40;99.90;;;;;;5072514;28;20445;-65
2023/02/23 05:06:28;;;;;;;18.53;9.80;;;5.40;99.90;;;;;;5071271;28;20482;-66
2023/02/23 05:08:55;;;;;;;29.10;11.03;;;5.40;99.90;;;;;;5069831;28;20493;-65
2023/02/23 05:11:25;;;;;;;22.30;10.63;;;5.30;99.90;;;;;;5070621;28;20898;-66
2023/02/23 05:13:53;;;;;;;21.33;10.67;;;5.30;99.90;;;;;;5070829;28;20442;-65
2023/02/23 05:16:19;;;;;;;23.93;10.73;;;5.40;99.90;;;;;;5069750;28;20489;-66
2023/02/23 05:18:47;;;;;;;25.13;10.77;;;5.40;99.90;;;;;;5070199;28;20459;-66
2023/02/23 05:21:15;;;;;;;21.47;9.97;;;5.30;99.90;;;;;;5070709;28;20467;-65
2023/02/23 05:23:44;;;;;;;31.97;11.50;;;5.40;99.90;;;;;;5070862;28;20490;-65
2023/02/23 05:26:13;;;;;;;27.30;10.27;;;5.40;99.90;;;;;;5070442;28;20424;-66
2023/02/23 05:28:46;;;;;;;29.60;11.10;;;5.40;99.90;;;;;;5071799;28;20467;-66
2023/02/23 05:31:13;;;;;;;31.33;9.70;;;5.40;99.90;;;;;;5070643;28;20443;-65
2023/02/23 05:33:41;;;;;;;17.93;10.43;;;5.30;99.90;;;;;;5072551;28;20423;-66
2023/02/23 05:36:10;;;;;;;22.13;9.77;;;5.30;99.90;;;;;;5071954;28;20420;-65
2023/02/23 05:38:40;;;;;;;15.83;8.80;;;5.20;99.90;;;;;;5072194;28;20463;-66
2023/02/23 05:41:20;;;;;;;34.03;11.00;;;5.20;99.90;;;;;;5071269;28;20454;-67
2023/02/23 05:43:55;;;;;;;21.13;10.50;;;5.20;99.90;;;;;;5071862;28;20463;-68
2023/02/23 05:46:24;;;;;;;21.17;10.13;;;5.20;99.90;;;;;;5054372;28;20443;-66
2023/02/23 05:48:55;;;;;;;24.57;9.97;;;5.10;99.90;;;;;;5072015;28;20471;-65
2023/02/23 05:51:32;;;;;;;30.77;10.37;;;5.20;99.90;;;;;;5072877;28;20450;-66
2023/02/23 05:54:00;;;;;;;30.53;9.10;;;5.10;99.90;;;;;;5071096;28;20427;-66
2023/02/23 05:56:29;;;;;;;18.80;9.30;;;5.10;99.90;;;;;;5072143;28;20465;-66
2023/02/23 05:58:57;;;;;;;16.37;8.50;;;5.10;99.90;;;;;;5070702;28;20455;-65
2023/02/23 06:01:37;;;;;;;29.13;11.80;;;5.10;99.90;;;;;;5070987;28;20459;-65
2023/02/23 06:04:05;;;;;;;26.60;11.23;;;5.10;99.90;;;;;;5071134;28;20438;-65
2023/02/23 06:06:32;;;;;;;15.00;8.60;;;5.10;99.90;;;;;;5071618;28;20443;-66
2023/02/23 06:09:04;;;;;;;24.63;10.83;;;5.10;99.90;;;;;;5071146;28;20487;-65
2023/02/23 06:11:35;;;;;;;20.57;10.40;;;5.00;99.90;;;;;;5070282;28;20463;-66
2023/02/23 06:14:02;;;;;;;24.87;11.60;;;5.00;99.90;;;;;;5069606;28;20458;-65
2023/02/23 06:16:29;;;;;;;21.73;11.83;;;5.00;99.90;;;;;;5070172;28;20470;-66
2023/02/23 06:18:57;;;;;;;23.73;11.93;;;5.00;99.90;;;;;;5051936;28;20455;-65
2023/02/23 06:21:24;;;;;;;25.00;10.57;;;5.10;99.90;;;;;;5067450;28;20690;-65
2023/02/23 06:23:52;;;;;;;20.40;11.17;;;5.10;99.90;;;;;;5064645;28;20986;-66
2023/02/23 06:26:20;;;;;;;21.03;8.87;;;5.10;99.90;;;;;;5061968;28;20443;-65
2023/02/23 06:28:49;;;;;;;25.97;11.67;;;5.10;99.90;;;;;;5060426;28;20471;-65
2023/02/23 06:31:16;;;;;;;32.13;11.17;;;5.10;99.90;;;;;;5051765;28;20437;-66
2023/02/23 06:33:46;;;;;;;19.07;9.80;;;5.10;99.90;;;;;;5058846;28;20486;-65
2023/02/23 06:36:13;;;;;;;20.17;10.50;;;5.10;99.90;;;;;;5059762;28;20524;-66
2023/02/23 06:38:40;;;;;;;22.70;10.60;;;5.10;99.90;;;;;;5059336;28;20529;-66
2023/02/23 06:41:09;;;;;;;30.07;11.17;;;5.10;99.90;;;;;;5057788;28;20509;-68
2023/02/23 06:43:36;;;;;;;24.40;9.50;;;5.10;99.90;;;;;;5058568;28;20442;-66
2023/02/23 06:46:05;;;;;;;18.20;9.83;;;5.20;99.90;;;;;;5058338;28;20463;-66
2023/02/23 06:48:32;;;;;;;24.53;10.60;;;5.10;99.90;;;;;;5059001;28;20483;-67
2023/02/23 06:51:01;;;;;;;26.90;11.40;;;5.20;99.90;;;;;;5058276;28;20489;-67
2023/02/23 06:53:29;;;;;;;28.67;11.60;;;5.30;99.90;;;;;;5055850;28;20463;-66
2023/02/23 06:55:56;;;;;;;18.13;9.67;;;5.20;99.90;;;;;;5057698;28;20435;-66
2023/02/23 06:58:25;;;;;;;23.73;11.23;;;5.30;99.90;;;;;;5057309;28;20469;-65
2023/02/23 07:00:53;;;;;;;22.40;11.87;;;5.40;99.90;;;;;;5061481;28;20474;-66
2023/02/23 07:03:24;;;;;;;22.20;10.70;;;5.40;99.90;;;;;;5062744;28;20447;-66
2023/02/23 07:05:52;;;;;;;23.97;10.27;;;5.40;99.90;;;;;;5063613;28;20522;-67
2023/02/23 07:08:20;;;;;;;24.17;10.40;;;5.40;99.90;;;;;;5062869;28;20524;-66
2023/02/23 07:10:47;;;;;;;23.93;9.17;;;5.50;99.90;;;;;;5061995;28;20495;-67
2023/02/23 07:13:16;;;;;;;24.50;9.83;;;5.50;99.90;;;;;;5063389;28;20439;-66
2023/02/23 07:15:43;;;;;;;24.43;10.10;;;5.50;99.90;;;;;;5064458;28;20431;-66
2023/02/23 07:18:13;;;;;;;27.97;11.83;;;5.50;99.90;;;;;;5064238;28;20495;-67
2023/02/23 07:20:41;;;;;;;26.60;11.23;;;5.50;99.90;;;;;;5064510;28;20416;-67
2023/02/23 07:23:08;;;;;;;22.17;9.80;;;5.60;99.90;;;;;;5062931;28;20479;-66
2023/02/23 07:25:35;;;;;;;23.33;11.10;;;5.60;99.90;;;;;;5043126;28;20848;-67
2023/02/23 07:28:02;;;;;;;26.73;11.27;;;5.60;99.90;;;;;;5061841;28;20831;-67
2023/02/23 07:30:30;;;;;;;25.50;10.40;;;5.70;99.90;;;;;;5062358;28;20505;-67
2023/02/23 07:32:58;;;;;;;18.33;9.60;;;5.70;99.90;;;;;;5061919;28;20513;-66
2023/02/23 07:35:25;;;;;;;16.20;9.40;;;5.80;99.90;;;;;;5062485;28;20844;-66
2023/02/23 07:37:54;;;;;;;19.23;11.13;;;5.80;99.90;;;;;;5062235;28;20886;-66
2023/02/23 07:40:24;;;;;;;13.40;9.27;;;5.90;99.90;;;;;;5062265;28;20466;-67
2023/02/23 07:42:52;;;;;;;19.50;10.57;;;5.90;99.90;;;;;;5063029;28;20447;-67
2023/02/23 07:45:19;;;;;;;18.27;10.03;;;6.00;99.90;;;;;;5062062;28;20442;-67
2023/02/23 07:47:46;;;;;;;25.00;12.53;;;5.90;99.90;;;;;;5062818;28;20605;-66
2023/02/23 07:50:13;;;;;;;14.87;9.40;;;6.00;99.90;;;;;;5062011;28;20859;-66
2023/02/23 07:52:43;;;;;;;21.67;11.17;;;6.00;99.90;;;;;;5060852;28;20502;-66
2023/02/23 07:55:12;;;;;;;23.90;11.07;;;6.10;99.90;;;;;;5061300;28;20992;-66
2023/02/23 07:57:40;;;;;;;22.60;11.80;;;6.10;99.90;;;;;;5061039;28;20490;-67
2023/02/23 08:00:08;;;;;;;17.40;9.40;;;6.20;99.90;;;;;;5061098;28;20478;-67
2023/02/23 08:02:35;;;;;;;27.73;11.27;;;6.30;99.90;;;;;;5060809;28;20504;-67
2023/02/23 08:05:03;;;;;;;30.17;9.67;;;6.40;99.90;;;;;;5059066;28;20486;-67
2023/02/23 08:07:32;;;;;;;20.00;10.27;;;6.50;99.90;;;;;;5059902;28;20499;-66
2023/02/23 08:09:59;;;;;;;18.80;10.77;;;6.50;99.90;;;;;;5059318;28;20507;-67
2023/02/23 08:12:32;;;;;;;27.50;9.23;;;6.50;99.90;;;;;;5059424;28;20455;-67
2023/02/23 08:14:59;;;;;;;19.30;11.63;;;6.50;99.90;;;;;;5059267;28;20919;-67
2023/02/23 08:17:27;;;;;;;13.33;10.33;;;6.60;99.90;;;;;;5060546;28;20528;-66
2023/02/23 08:19:54;;;;;;;19.03;9.63;;;6.60;99.90;;;;;;5060207;28;20435;-66
2023/02/23 08:22:21;;;;;;;25.60;10.30;;;6.60;99.90;;;;;;5059699;28;20807;-67
2023/02/23 08:24:48;;;;;;;23.90;10.10;;;6.60;99.90;;;;;;5059247;28;20436;-65
2023/02/23 08:27:15;;;;;;;26.53;9.23;;;6.70;99.90;;;;;;5058063;28;20467;-66
2023/02/23 08:29:44;;;;;;;42.63;11.30;;;6.80;99.90;;;;;;5057963;28;20797;-66
2023/02/23 08:32:11;;;;;;;19.47;10.33;;;6.90;99.90;;;;;;5058625;28;20505;-66
2023/02/23 08:34:40;;;;;;;16.77;9.47;;;6.90;99.90;;;;;;5058584;28;20471;-65
2023/02/23 08:37:07;;;;;;;24.63;12.20;;;6.90;99.90;;;;;;5058088;28;20484;-67
2023/02/23 08:39:34;;;;;;;15.30;10.90;;;6.90;99.90;;;;;;5058541;28;20478;-66
2023/02/23 08:42:01;;;;;;;18.70;10.57;;;7.10;99.90;;;;;;5057931;28;20463;-68
2023/02/23 08:44:28;;;;;;;21.03;11.00;;;7.10;99.90;;;;;;5039880;28;20450;-66
2023/02/23 08:46:57;;;;;;;21.53;12.87;;;7.10;99.90;;;;;;5057397;28;20475;-66
2023/02/23 08:49:25;;;;;;;21.70;11.20;;;7.10;99.90;;;;;;5057576;28;20585;-67
2023/02/23 08:51:53;;;;;;;19.57;9.37;;;7.10;99.90;;;;;;5057224;28;20859;-66
2023/02/23 08:54:20;;;;;;;22.73;10.70;;;7.20;99.90;;;;;;5058435;28;20485;-67
2023/02/23 08:56:47;;;;;;;19.10;11.23;;;7.20;99.90;;;;;;5057288;28;20431;-66
2023/02/23 08:59:15;;;;;;;19.80;10.07;;;7.30;99.90;;;;;;5057504;28;20468;-66
2023/02/23 09:01:42;;;;;;;22.70;10.27;;;7.30;99.90;;;;;;5057738;28;20529;-66
2023/02/23 09:04:11;;;;;;;20.23;10.70;;;7.30;99.90;;;;;;5057479;28;20454;-66
2023/02/23 09:06:38;;;;;;;19.80;11.00;;;7.40;99.90;;;;;;5057103;28;20538;-66
2023/02/23 09:09:05;;;;;;;24.73;10.73;;;7.40;99.90;;;;;;5057844;28;20496;-66
2023/02/23 09:11:32;;;;;;;22.30;10.93;;;7.50;99.90;;;;;;5057969;28;21022;-66
2023/02/23 09:13:59;;;;;;;27.20;10.70;;;7.50;99.90;;;;;;5057259;28;20817;-66
2023/02/23 09:16:26;;;;;;;26.57;11.80;;;7.60;99.90;;;;;;5057769;28;20495;-66
2023/02/23 09:18:53;;;;;;;26.17;11.70;;;7.60;99.90;;;;;;5057963;28;20947;-67
2023/02/23 09:21:23;;;;;;;24.30;11.73;;;7.50;99.90;;;;;;5057628;28;20447;-65
2023/02/23 09:23:54;;;;;;;20.43;10.83;;;7.50;99.90;;;;;;5057365;28;20457;-67
2023/02/23 09:26:23;;;;;;;27.67;10.77;;;7.60;99.90;;;;;;5057184;28;20542;-67
2023/02/23 09:28:50;;;;;;;22.20;11.40;;;7.70;99.90;;;;;;5056891;28;20782;-67
2023/02/23 09:31:20;;;;;;;22.03;11.00;;;7.70;99.90;;;;;;5057453;28;20771;-66
2023/02/23 09:33:47;;;;;;;24.87;12.93;;;7.80;99.90;;;;;;5057684;28;20869;-67
2023/02/23 09:36:16;;;;;;;22.73;12.40;;;7.90;99.90;;;;;;5057226;28;20443;-68
2023/02/23 09:38:46;;;;;;;23.23;9.60;;;8.00;99.90;;;;;;5056807;28;20529;-67
2023/02/23 09:41:40;;;;;;;27.23;14.00;;;8.10;99.90;;;;;;5056166;28;20439;-67
2023/02/23 09:44:20;;;;;;;21.63;10.97;;;8.20;99.90;;;;;;5056469;28;21053;-68
2023/02/23 09:46:57;;;;;;;24.67;11.73;;;8.30;99.90;;;;;;5057104;28;20446;-67
2023/02/23 09:49:28;;;;;;;27.20;11.70;;;8.40;99.90;;;;;;5056608;28;20459;-66
2023/02/23 09:51:59;;;;;;;29.63;11.30;;;8.40;99.90;;;;;;5056795;28;20538;-66
2023/02/23 09:54:30;;;;;;;20.10;10.00;;;8.50;99.90;;;;;;5056187;28;20542;-67
2023/02/23 09:56:59;;;;;;;25.90;10.47;;;8.60;99.90;;;;;;5056220;28;20466;-66
2023/02/23 09:59:28;;;;;;;17.20;9.43;;;8.90;99.90;;;;;;5038882;28;20434;-67
2023/02/23 10:02:05;;;;;;;21.67;11.87;;;9.20;99.90;;;;;;5055585;28;20542;-66
2023/02/23 10:04:38;;;;;;;19.93;10.60;;;9.50;99.90;;;;;;5055870;28;20907;-67
2023/02/23 10:07:14;;;;;;;19.40;11.00;;;10.00;99.90;;;;;;5054811;28;20504;-67
2023/02/23 10:10:11;;;;;;;19.77;10.40;;;10.20;99.90;;;;;;5038300;28;20481;-67
2023/02/23 10:12:47;;;;;;;21.23;10.73;;;10.70;99.90;;;;;;5055906;28;20467;-67
2023/02/23 10:15:24;;;;;;;25.23;11.40;;;11.10;99.90;;;;;;5056113;28;20832;-66
2023/02/23 10:18:02;;;;;;;18.77;9.97;;;11.70;99.90;;;;;;5055694;28;20960;-66
2023/02/23 10:20:38;;;;;;;19.87;10.70;;;12.20;99.90;;;;;;5054803;28;20471;-67
2023/02/23 10:23:13;;;;;;;17.00;11.20;;;12.70;99.90;;;;;;5036808;28;20467;-67
2023/02/23 10:25:44;;;;;;;30.53;11.97;;;13.10;99.90;;;;;;5053684;28;20478;-67
2023/02/23 10:28:17;;;;;;;20.40;10.80;;;13.20;99.90;;;;;;5053438;28;20502;-66
2023/02/23 10:30:46;;;;;;;19.50;12.07;;;13.50;99.90;;;;;;5053809;28;20471;-67
2023/02/23 10:33:16;;;;;;;21.80;10.37;;;13.70;99.90;;;;;;5053680;28;20474;-67
2023/02/23 10:35:45;;;;;;;17.10;9.93;;;13.80;99.90;;;;;;5058095;28;20530;-67
2023/02/23 10:38:17;;;;;;;18.90;10.50;;;13.80;99.90;;;;;;5058087;28;20472;-67
2023/02/23 10:40:49;;;;;;;17.30;11.33;;;13.80;99.90;;;;;;5023485;28;20771;-67
2023/02/23 10:43:16;;;;;;;20.43;12.50;;;13.80;99.90;;;;;;5057690;28;20489;-67
2023/02/23 10:45:47;;;;;;;20.83;10.80;;;13.90;99.90;;;;;;5057204;28;20889;-66
2023/02/23 10:48:18;;;;;;;21.30;11.30;;;14.00;99.90;;;;;;5058011;28;20501;-66
2023/02/23 10:50:47;;;;;;;21.30;10.87;;;14.20;99.90;;;;;;5057501;28;20554;-67
2023/02/23 10:53:19;;;;;;;24.67;12.70;;;14.40;99.90;;;;;;5039751;28;20455;-67
2023/02/23 10:56:02;;;;;;;20.17;11.40;;;14.30;99.90;;;;;;5057547;28;20483;-68
2023/02/23 10:58:29;;;;;;;21.33;13.30;;;14.10;99.90;;;;;;5058238;28;20825;-67
2023/02/23 11:00:58;;;;;;;20.60;10.90;;;13.80;99.90;;;;;;5057089;28;20443;-68
2023/02/23 11:03:31;;;;;;;17.00;11.70;;;13.60;99.90;;;;;;5057267;28;20472;-67
2023/02/23 11:05:59;;;;;;;28.60;12.73;;;13.70;99.90;;;;;;5057448;28;20466;-66
2023/02/23 11:08:29;;;;;;;25.17;11.80;;;13.60;99.90;;;;;;5057450;28;20516;-66
2023/02/23 11:11:24;;;;;;;25.17;12.37;;;13.60;99.90;;;;;;5057492;28;21040;-67
2023/02/23 11:13:52;;;;;;;26.93;11.53;;;13.40;99.90;;;;;;5057516;28;20830;-67
2023/02/23 11:16:22;;;;;;;24.60;11.40;;;13.30;99.90;;;;;;5057418;28;20450;-66
2023/02/23 11:18:54;;;;;;;18.90;12.13;;;13.30;99.90;;;;;;5057559;28;20475;-66
2023/02/23 11:21:28;;;;;;;22.50;13.27;;;13.20;99.90;;;;;;5057894;28;20789;-67
2023/02/23 11:23:57;;;;;;;22.13;12.30;;;13.10;99.90;;;;;;5057027;28;20475;-66
2023/02/23 11:26:30;;;;;;;21.40;11.13;;;13.10;99.90;;;;;;5057530;28;20501;-66
2023/02/23 11:29:02;;;;;;;24.87;11.80;;;13.00;99.90;;;;;;5057098;28;20501;-66
2023/02/23 11:31:33;;;;;;;20.63;12.50;;;12.90;99.90;;;;;;5038883;28;20479;-67
2023/02/23 11:34:03;;;;;;;22.33;11.40;;;12.80;99.90;;;;;;5057089;28;20447;-67
2023/02/23 11:36:32;;;;;;;26.30;14.17;;;12.80;99.90;;;;;;5057742;28;20434;-67
2023/02/23 11:39:07;;;;;;;30.00;13.50;;;12.70;99.90;;;;;;5056672;28;20471;-67
2023/02/23 11:41:36;;;;;;;22.57;13.07;;;12.60;99.90;;;;;;5056807;28;20475;-67
2023/02/23 11:44:04;;;;;;;20.37;10.73;;;12.70;99.90;;;;;;5058471;28;20435;-68
2023/02/23 11:46:36;;;;;;;21.43;12.47;;;12.60;99.90;;;;;;5058572;28;20439;-70
2023/02/23 11:49:07;;;;;;;31.07;12.57;;;12.60;99.90;;;;;;5059583;28;20477;-71
2023/02/23 11:51:37;;;;;;;19.10;11.70;;;12.70;99.90;;;;;;5058868;28;20494;-70
2023/02/23 11:54:09;;;;;;;26.23;13.50;;;12.70;99.90;;;;;;5059512;28;20451;-71
2023/02/23 11:56:37;;;;;;;19.23;12.47;;;12.70;99.90;;;;;;5058857;28;20524;-66
2023/02/23 11:59:07;;;;;;;26.60;14.10;;;12.70;99.90;;;;;;5058219;28;20831;-66
2023/02/23 12:01:42;;;;;;;22.53;13.37;;;12.70;99.90;;;;;;5057338;28;20435;-66
2023/02/23 12:04:22;;;;;;;21.40;12.03;;;12.60;99.90;;;;;;5057418;28;20471;-66
2023/02/23 12:06:50;;;;;;;23.03;13.93;;;12.60;99.90;;;;;;5057012;28;20456;-66
2023/02/23 12:09:23;;;;;;;34.33;13.07;;;12.50;99.90;;;;;;5056234;28;20443;-65
2023/02/23 12:11:58;;;;;;;31.20;13.17;;;12.50;99.90;;;;;;5056567;28;20541;-66
2023/02/23 12:14:31;;;;;;;36.30;17.30;;;12.60;99.90;;;;;;5056795;28;20837;-67
2023/02/23 12:17:02;;;;;;;23.53;13.20;;;12.60;99.90;;;;;;5056318;28;20436;-67
2023/02/23 12:19:33;;;;;;;27.30;12.77;;;12.50;99.90;;;;;;5056442;28;20443;-67
2023/02/23 12:22:04;;;;;;;19.70;11.87;;;12.60;99.90;;;;;;5056113;28;20460;-67
2023/02/23 12:24:40;;;;;;;19.80;11.93;;;12.70;99.90;;;;;;5055261;28;20497;-66
2023/02/23 12:27:15;;;;;;;28.50;13.90;;;12.80;99.90;;;;;;5055960;28;20506;-66
2023/02/23 12:29:58;;;;;;;20.83;12.17;;;12.80;99.90;;;;;;5055506;28;20875;-66
2023/02/23 12:32:35;;;;;;;20.80;12.20;;;12.80;99.90;;;;;;5055388;28;20479;-66
2023/02/23 12:35:10;;;;;;;23.87;13.63;;;12.80;99.90;;;;;;5055342;28;20457;-67
2023/02/23 12:37:40;;;;;;;22.87;13.00;;;12.80;99.90;;;;;;5055954;28;20504;-67
2023/02/23 12:40:17;;;;;;;18.80;12.70;;;12.70;99.90;;;;;;5055717;28;20447;-66
2023/02/23 12:42:54;;;;;;;23.00;12.50;;;12.60;99.90;;;;;;5054877;28;20463;-67
2023/02/23 12:45:28;;;;;;;22.40;13.00;;;12.50;99.90;;;;;;5038746;28;20483;-66
2023/02/23 12:48:04;;;;;;;25.80;13.33;;;12.50;99.90;;;;;;5056025;28;20639;-67
2023/02/23 12:50:35;;;;;;;24.23;12.30;;;12.50;99.90;;;;;;5055567;28;20436;-66
2023/02/23 12:53:13;;;;;;;20.50;12.80;;;12.50;99.90;;;;;;5054931;28;20479;-66
2023/02/23 12:55:50;;;;;;;24.20;12.20;;;12.50;99.90;;;;;;5055035;28;20486;-66
2023/02/23 12:58:24;;;;;;;23.30;13.10;;;12.60;99.90;;;;;;5054189;28;20475;-66
2023/02/23 13:00:59;;;;;;;20.23;12.00;;;12.50;99.90;;;;;;5055280;28;20458;-66
2023/02/23 13:03:59;;;;;;;19.40;12.73;;;12.40;99.90;;;;;;5055153;28;20442;-67
2023/02/23 13:06:35;;;;;;;24.43;13.70;;;12.30;99.90;;;;;;5054959;28;20448;-67
2023/02/23 13:09:18;;;;;;;29.93;14.97;;;12.30;99.90;;;;;;5055577;28;20825;-67
2023/02/23 13:12:00;;;;;;;24.03;14.13;;;12.10;99.90;;;;;;5055297;28;20479;-66
2023/02/23 13:14:36;;;;;;;22.57;11.93;;;12.10;99.90;;;;;;5054541;28;20879;-66
2023/02/23 13:17:09;;;;;;;27.50;14.57;;;12.10;99.90;;;;;;5054841;28;20883;-67
2023/02/23 13:19:42;;;;;;;25.73;12.70;;;12.10;99.90;;;;;;5054762;28;20553;-68
2023/02/23 13:22:26;;;;;;;25.00;13.57;;;12.20;99.90;;;;;;5054114;28;20478;-67
2023/02/23 13:24:58;;;;;;;22.53;11.97;;;12.10;99.90;;;;;;5054583;28;20876;-67
2023/02/23 13:27:30;;;;;;;20.00;12.10;;;12.20;99.90;;;;;;5055220;28;20888;-68
2023/02/23 13:29:58;;;;;;;31.73;15.60;;;12.20;99.90;;;;;;5055043;28;20451;-67
2023/02/23 13:32:30;;;;;;;24.00;12.90;;;12.20;99.90;;;;;;5054650;28;20541;-66
2023/02/23 13:35:00;;;;;;;29.60;14.57;;;12.20;99.90;;;;;;5054747;28;20439;-67
2023/02/23 13:37:33;;;;;;;33.93;14.00;;;12.20;99.90;;;;;;5054780;28;20471;-67
2023/02/23 13:40:16;;;;;;;24.93;12.50;;;12.20;99.90;;;;;;5054559;28;20487;-66
2023/02/23 13:42:57;;;;;;;29.77;13.80;;;12.20;99.90;;;;;;5054277;28;20448;-67
2023/02/23 13:45:36;;;;;;;26.37;13.23;;;12.10;99.90;;;;;;5054826;28;20428;-67
2023/02/23 13:48:17;;;;;;;27.73;13.30;;;11.90;99.90;;;;;;5054356;28;20506;-68
2023/02/23 13:50:51;;;;;;;21.97;12.00;;;11.90;99.90;;;;;;5054360;28;20515;-68
2023/02/23 13:53:40;;;;;;;21.20;14.20;;;11.80;99.90;;;;;;5054427;28;21036;-68
2023/02/23 13:56:09;;;;;;;23.40;13.53;;;11.80;99.90;;;;;;5054812;28;20447;-67
2023/02/23 13:58:37;;;;;;;23.40;13.50;;;11.70;99.90;;;;;;5054105;28;20471;-67
2023/02/23 14:01:11;;;;;;;25.30;12.57;;;11.70;99.90;;;;;;5054366;28;20489;-68
2023/02/23 14:03:46;;;;;;;32.43;13.30;;;11.70;99.90;;;;;;5054373;28;20810;-67
2023/02/23 14:06:19;;;;;;;23.63;14.83;;;11.70;99.90;;;;;;5054304;28;20530;-68
2023/02/23 14:08:53;;;;;;;27.93;13.77;;;11.70;99.90;;;;;;5053755;28;20501;-67
2023/02/23 14:11:44;;;;;;;51.83;23.23;;;11.60;99.90;;;;;;5054157;28;20509;-67
2023/02/23 14:14:36;;;;;;;21.00;13.90;;;11.60;99.90;;;;;;5054588;28;20482;-68
2023/02/23 14:17:42;;;;;;;22.73;12.70;;;11.60;99.90;;;;;;5054047;28;20521;-67
2023/02/23 14:20:23;;;;;;;24.53;13.70;;;11.50;99.90;;;;;;5053766;28;21033;-67